»·PEaware :: EZS314 KSBA-KIFP

EZS314 :: KSBA-KIFP

FLIGHT INFORMATION

Flight Status: Arrived
Operator:
Easy Jet Switzerland
More flights by this operator :: More flights under this callsign
Pilot: Timothy W. (9658)
Aircraft: AIRBUS A319
(A319)
More flights by this aircraft type
Origin: KSBA Santa Barbara Mun
United States
Destination: KIFP Laughlin/Bullhead Intl
United States
More flights between these airports :: More routes between these airports
Route: +MISHN2 NNAVY HEC GFS
File this flight plan on PilotEdge
Remarks: TopSwiss
Altitude:
(Current/Filed)
39,000ft
Speed:
(Current/Filed)
464kts
Departed: 29-Jun-18 09:57 AM
Arrived: 29-Jun-18 10:57 AM
Distance/Time
Traveled:
264nm/1:00
Distance/Time
To Go:
Arrived

Flight Plot

Page will automatically refresh every two minutes.

Flight plan parsing failed; only flown route is shown


Map Options




Map Legend


Flown Route
Filed Route
Departure Airport
Arrival Airport
Navaid (VOR, NDB)
Fix

Horizontal Profiles

Position Reports

Time Latitude Longitude Heading Altitude Ground
Speed
29-Jun-18 09:20 34.424872 -119.837172 115 22ft 0kts
29-Jun-18 09:21 34.424872 -119.837172 115 22ft 0kts
29-Jun-18 09:22 34.424872 -119.837172 115 22ft 0kts
29-Jun-18 09:23 34.424872 -119.837172 115 22ft 0kts
29-Jun-18 09:24 34.424872 -119.837172 115 22ft 0kts
29-Jun-18 09:25 34.424872 -119.837172 115 22ft 0kts
29-Jun-18 09:26 34.424872 -119.837172 115 22ft 0kts
29-Jun-18 09:27 34.424872 -119.837172 115 22ft 0kts
29-Jun-18 09:28 34.424872 -119.837172 115 22ft 0kts
29-Jun-18 09:29 34.424872 -119.837172 115 22ft 0kts
29-Jun-18 09:30 34.424872 -119.837172 115 22ft 0kts
29-Jun-18 09:31 34.424872 -119.837172 115 22ft 0kts
29-Jun-18 09:32 34.424872 -119.837172 115 22ft 0kts
29-Jun-18 09:33 34.424872 -119.837172 115 22ft 0kts
29-Jun-18 09:34 34.424872 -119.837172 115 22ft 0kts
29-Jun-18 09:35 34.424872 -119.837172 115 22ft 0kts
29-Jun-18 09:36 34.424872 -119.837172 115 22ft 0kts
29-Jun-18 09:37 34.424872 -119.837172 115 22ft 0kts
29-Jun-18 09:38 34.424872 -119.837172 115 22ft 0kts
29-Jun-18 09:39 34.424872 -119.837172 115 22ft 0kts
29-Jun-18 09:40 34.424872 -119.837172 115 22ft 0kts
29-Jun-18 09:41 34.424872 -119.837172 115 22ft 0kts
29-Jun-18 09:42 34.424872 -119.837172 115 22ft 0kts
29-Jun-18 09:43 34.424872 -119.837172 115 22ft 0kts
29-Jun-18 09:44 34.424872 -119.837172 115 22ft 0kts
29-Jun-18 09:45 34.424872 -119.837172 115 22ft 0kts
29-Jun-18 09:46 34.424872 -119.837172 115 22ft 0kts
29-Jun-18 09:47 34.424872 -119.837172 115 22ft 0kts
29-Jun-18 09:48 34.424872 -119.837172 115 22ft 0kts
29-Jun-18 09:49 34.424812 -119.837733 19 22ft 2kts
29-Jun-18 09:50 34.424584 -119.837711 343 22ft 0kts
29-Jun-18 09:51 34.424584 -119.837711 343 22ft 0kts
29-Jun-18 09:52 34.424584 -119.837711 343 22ft 0kts
29-Jun-18 09:53 34.426741 -119.837621 88 22ft 12kts
29-Jun-18 09:54 34.427016 -119.834624 0 22ft 0kts
29-Jun-18 09:55 34.427016 -119.834624 0 22ft 0kts
29-Jun-18 09:56 34.427094 -119.834623 1 22ft 4kts
29-Jun-18 09:57 34.427494 -119.852113 269 63ft 173kts
29-Jun-18 09:58 34.424150 -119.912845 250 3110ft 226kts
29-Jun-18 09:59 34.360454 -119.937049 177 6616ft 276kts
29-Jun-18 10:00 34.300027 -119.881915 132 9253ft 291kts
29-Jun-18 10:01 34.238515 -119.806510 133 11789ft 353kts
29-Jun-18 10:02 34.199365 -119.691371 90 13148ft 414kts
29-Jun-18 10:03 34.194642 -119.549293 86 15547ft 430kts
29-Jun-18 10:04 34.200131 -119.403626 84 17661ft 443kts
29-Jun-18 10:05 34.205978 -119.254179 84 19485ft 455kts
29-Jun-18 10:06 34.213499 -119.100780 79 21064ft 464kts
29-Jun-18 10:07 34.240663 -118.947925 72 22466ft 470kts
29-Jun-18 10:08 34.271579 -118.794867 73 23796ft 475kts
29-Jun-18 10:09 34.302035 -118.641604 73 25000ft 478kts
29-Jun-18 10:10 34.332428 -118.486448 73 26509ft 474kts
29-Jun-18 10:11 34.362547 -118.331817 72 28019ft 472kts
29-Jun-18 10:12 34.392132 -118.179476 72 29475ft 470kts
29-Jun-18 10:13 34.424524 -118.027621 66 30916ft 466kts
29-Jun-18 10:14 34.474507 -117.888017 59 32356ft 458kts
29-Jun-18 10:15 34.526811 -117.754598 59 33651ft 456kts
29-Jun-18 10:16 34.579743 -117.618611 59 34952ft 454kts
29-Jun-18 10:17 34.630916 -117.486230 59 36172ft 451kts
29-Jun-18 10:18 34.683345 -117.349419 59 37228ft 450kts
29-Jun-18 10:19 34.733545 -117.217818 59 38123ft 450kts
29-Jun-18 10:20 34.785562 -117.080982 59 38937ft 451kts
29-Jun-18 10:21 34.839022 -116.940122 60 38956ft 465kts
29-Jun-18 10:22 34.887290 -116.796318 75 38940ft 477kts
29-Jun-18 10:23 34.875888 -116.636249 110 38938ft 487kts
29-Jun-18 10:24 34.852097 -116.479968 77 37242ft 469kts
29-Jun-18 10:25 34.885484 -116.329308 71 34077ft 466kts
29-Jun-18 10:26 34.918854 -116.177110 72 30229ft 476kts
29-Jun-18 10:27 34.952453 -116.020471 73 25692ft 484kts
29-Jun-18 10:28 34.986184 -115.862466 73 23986ft 484kts
29-Jun-18 10:29 35.019633 -115.707040 73 22316ft 472kts
29-Jun-18 10:30 35.051195 -115.557515 74 18490ft 442kts
29-Jun-18 10:31 35.080552 -115.417417 74 14743ft 421kts
29-Jun-18 10:32 35.108676 -115.282387 75 11027ft 402kts
29-Jun-18 10:33 35.144062 -115.162451 60 9307ft 341kts
29-Jun-18 10:34 35.195374 -115.079578 51 9018ft 292kts
29-Jun-18 10:35 35.247524 -115.002114 51 9013ft 299kts
29-Jun-18 10:36 35.300763 -114.922822 51 9013ft 303kts
29-Jun-18 10:38 35.351773 -114.847256 51 9011ft 274kts
29-Jun-18 10:39 35.400066 -114.775230 51 9013ft 274kts
29-Jun-18 10:40 35.448680 -114.702483 51 9013ft 280kts
29-Jun-18 10:41 35.506810 -114.644711 358 9018ft 280kts
29-Jun-18 10:42 35.561968 -114.699430 269 9023ft 267kts
29-Jun-18 10:43 35.511559 -114.738449 151 9021ft 263kts
29-Jun-18 10:43 35.484525 -114.672400 133 9020ft 267kts
29-Jun-18 10:44 35.429691 -114.693305 261 9019ft 265kts
29-Jun-18 10:45 35.478869 -114.752712 335 9012ft 278kts
29-Jun-18 10:46 35.549383 -114.791088 334 9019ft 278kts
29-Jun-18 10:47 35.602644 -114.754406 98 8903ft 272kts
29-Jun-18 10:49 35.538866 -114.696658 158 7348ft 252kts
29-Jun-18 10:50 35.477935 -114.663224 158 6361ft 223kts
29-Jun-18 10:50 35.433362 -114.639371 159 5606ft 210kts
29-Jun-18 10:51 35.381539 -114.611687 159 4175ft 194kts
29-Jun-18 10:52 35.337392 -114.588112 159 3319ft 163kts
29-Jun-18 10:53 35.295041 -114.569456 178 3006ft 161kts
29-Jun-18 10:54 35.256129 -114.566563 178 2420ft 134kts
29-Jun-18 10:55 35.219075 -114.563783 178 1725ft 133kts
29-Jun-18 10:56 35.182425 -114.560794 181 1150ft 132kts
29-Jun-18 10:57 35.154214 -114.559378 175 704ft 35kts
29-Jun-18 10:58 35.151329 -114.557987 68 704ft 0kts
29-Jun-18 10:59 35.151329 -114.557987 68 704ft 0kts
29-Jun-18 11:00 35.151413 -114.557798 48 704ft 5kts
29-Jun-18 11:01 35.155643 -114.558010 356 704ft 18kts
29-Jun-18 11:02 35.159867 -114.558318 356 704ft 15kts
29-Jun-18 11:03 35.162959 -114.557743 87 704ft 8kts
29-Jun-18 11:04 35.164310 -114.556305 85 704ft 5kts
29-Jun-18 11:05 35.164321 -114.556155 85 704ft 0kts
29-Jun-18 11:06 35.164321 -114.556155 85 704ft 0kts
29-Jun-18 11:07 35.164321 -114.556155 85 704ft 0kts
29-Jun-18 11:08 35.164321 -114.556155 85 704ft 0kts
29-Jun-18 11:09 35.164321 -114.556155 85 704ft 0kts
29-Jun-18 11:10 35.164321 -114.556155 85 704ft 0kts
29-Jun-18 11:11 35.164321 -114.556155 85 704ft 0kts
29-Jun-18 11:12 35.164321 -114.556155 85 704ft 0kts

Navigation Log

Ident Type
Flight plan parsing failed, navigation log unavailable